createdAt,value
2022-11-29T00:01:41.437Z,60.81
2022-11-29T00:04:10.181Z,61.36
2022-11-29T00:06:38.996Z,60.87
2022-11-29T00:09:11.909Z,60.77
2022-11-29T00:12:02.002Z,60.58
2022-11-29T00:14:30.454Z,61.07
2022-11-29T00:17:04.585Z,61.17
2022-11-29T00:19:35.104Z,61.01
2022-11-29T00:22:04.137Z,61.14
2022-11-29T00:24:32.752Z,61.86
2022-11-29T00:27:01.582Z,62.04
2022-11-29T00:29:30.635Z,61.69
2022-11-29T00:31:59.256Z,61.92
2022-11-29T00:34:27.662Z,62.09
2022-11-29T00:36:55.589Z,62.57
2022-11-29T00:39:23.935Z,62.30
2022-11-29T00:41:52.272Z,62.30
2022-11-29T00:44:20.827Z,62.45
2022-11-29T00:46:49.759Z,62.93
2022-11-29T00:49:18.271Z,62.32
2022-11-29T00:51:47.202Z,61.87
2022-11-29T00:54:16.289Z,61.69
2022-11-29T00:56:44.591Z,61.78
2022-11-29T00:59:12.539Z,61.41
2022-11-29T01:01:40.532Z,60.81
2022-11-29T01:04:08.486Z,61.26
2022-11-29T01:06:36.513Z,60.37
2022-11-29T01:09:05.452Z,58.34
2022-11-29T01:11:34.103Z,57.56
2022-11-29T01:14:03.802Z,59.24
2022-11-29T01:16:32.257Z,63.49
2022-11-29T01:19:00.684Z,66.44
2022-11-29T01:21:29.281Z,66.27
2022-11-29T01:23:57.199Z,64.89
2022-11-29T01:26:29.214Z,63.80
2022-11-29T01:28:58.796Z,63.35
2022-11-29T01:31:31.259Z,62.87
2022-11-29T01:34:03.598Z,62.80
2022-11-29T01:36:34.868Z,62.33
2022-11-29T01:39:06.202Z,61.32
2022-11-29T01:41:37.894Z,61.30
2022-11-29T01:44:25.697Z,61.24
2022-11-29T01:46:55.339Z,61.15
2022-11-29T01:49:32.997Z,60.37
2022-11-29T01:52:11.419Z,60.58
2022-11-29T01:54:45.509Z,60.82
2022-11-29T01:57:14.605Z,60.76
2022-11-29T01:59:48.300Z,59.93
2022-11-29T02:02:29.487Z,60.02
2022-11-29T02:05:00.732Z,60.68
2022-11-29T02:07:29.039Z,61.40
2022-11-29T02:09:56.962Z,61.58
2022-11-29T02:12:40.360Z,61.77
2022-11-29T02:15:26.663Z,63.25
2022-11-29T02:18:11.459Z,62.59
2022-11-29T02:21:43.198Z,62.88
2022-11-29T02:24:42.120Z,61.36
2022-11-29T02:27:43.920Z,62.64
2022-11-29T02:30:49.884Z,62.22
2022-11-29T02:34:07.273Z,62.05
2022-11-29T02:37:07.156Z,62.38
2022-11-29T02:40:01.029Z,62.43
2022-11-29T02:43:16.247Z,62.19
2022-11-29T02:45:51.596Z,62.07
2022-11-29T02:49:07.654Z,61.99
2022-11-29T02:51:48.293Z,61.49
2022-11-29T02:54:40.727Z,62.14
2022-11-29T02:57:45.651Z,61.38
2022-11-29T03:00:18.066Z,61.34
2022-11-29T03:02:52.302Z,61.51
2022-11-29T03:05:47.332Z,61.14
2022-11-29T03:08:34.603Z,61.29
2022-11-29T03:11:30.445Z,61.88
2022-11-29T03:14:31.160Z,62.16
2022-11-29T03:17:12.976Z,61.24
2022-11-29T03:20:13.075Z,61.09
2022-11-29T03:23:19.513Z,61.10
2022-11-29T03:25:59.698Z,61.14
2022-11-29T03:28:55.393Z,60.51
2022-11-29T03:31:32.229Z,58.64
2022-11-29T03:34:23.075Z,59.41
2022-11-29T03:37:16.384Z,62.04
2022-11-29T03:39:44.184Z,66.55
2022-11-29T03:42:34.490Z,67.25
2022-11-29T03:45:22.944Z,65.49
2022-11-29T03:48:22.041Z,63.44
2022-11-29T03:50:57.056Z,62.07
2022-11-29T03:53:56.938Z,61.66
2022-11-29T03:56:32.780Z,61.37
2022-11-29T03:59:19.577Z,61.35
2022-11-29T04:02:32.331Z,61.31
2022-11-29T04:05:36.027Z,61.42
2022-11-29T04:08:22.686Z,61.51
2022-11-29T04:11:21.932Z,60.32
2022-11-29T04:14:03.413Z,60.16
2022-11-29T04:16:56.827Z,60.19
2022-11-29T04:20:00.207Z,59.97
2022-11-29T04:22:54.129Z,57.77
2022-11-29T04:25:33.974Z,58.42
2022-11-29T04:28:45.012Z,60.18
2022-11-29T04:31:50.792Z,65.93
2022-11-29T04:34:49.820Z,66.65
2022-11-29T04:37:51.853Z,64.02
2022-11-29T04:41:05.994Z,62.08
2022-11-29T04:43:55.114Z,60.68
2022-11-29T04:46:38.503Z,60.41
2022-11-29T04:49:25.999Z,56.69
2022-11-29T04:52:33.596Z,56.20
2022-11-29T04:55:34.025Z,57.13
2022-11-29T04:58:15.067Z,61.94
2022-11-29T05:01:18.556Z,66.20
2022-11-29T05:04:19.234Z,66.80
2022-11-29T05:07:18.873Z,64.29
2022-11-29T05:10:18.506Z,63.64
2022-11-29T05:12:59.861Z,63.02
2022-11-29T05:16:24.035Z,62.82
2022-11-29T05:19:12.192Z,62.91
2022-11-29T05:22:17.546Z,62.35
2022-11-29T05:25:24.467Z,62.22
2022-11-29T05:28:33.425Z,61.08
2022-11-29T05:31:29.777Z,60.74
2022-11-29T05:34:18.277Z,58.22
2022-11-29T05:37:14.613Z,57.71
2022-11-29T05:40:47.390Z,58.66
2022-11-29T05:43:54.881Z,65.25
2022-11-29T05:46:52.255Z,66.91
2022-11-29T05:49:38.640Z,65.14
2022-11-29T05:52:19.666Z,63.46
2022-11-29T05:55:07.120Z,62.68
2022-11-29T05:57:55.499Z,60.90
2022-11-29T06:00:24.799Z,59.88
2022-11-29T06:03:33.941Z,57.95
2022-11-29T06:06:26.184Z,56.99
2022-11-29T06:09:07.781Z,59.77
2022-11-29T06:11:54.047Z,63.69
2022-11-29T06:15:24.018Z,66.69
2022-11-29T06:18:12.664Z,65.81
2022-11-29T06:20:54.658Z,62.13
2022-11-29T06:23:54.847Z,62.02
2022-11-29T06:26:52.251Z,61.45
2022-11-29T06:29:54.245Z,57.56
2022-11-29T06:32:55.224Z,57.83
2022-11-29T06:35:47.993Z,58.29
2022-11-29T06:38:23.047Z,61.02
2022-11-29T06:40:54.952Z,66.64
2022-11-29T06:43:27.383Z,68.37
2022-11-29T06:46:10.146Z,66.50
2022-11-29T06:49:22.100Z,63.84
2022-11-29T06:52:12.988Z,62.68
2022-11-29T06:55:12.737Z,61.74
2022-11-29T06:58:30.310Z,61.66
2022-11-29T07:01:23.926Z,60.62
2022-11-29T07:04:25.560Z,60.58
2022-11-29T07:06:54.005Z,57.02
2022-11-29T07:09:33.266Z,55.95
2022-11-29T07:12:01.676Z,58.74
2022-11-29T07:14:30.087Z,62.62
2022-11-29T07:17:28.914Z,66.01
2022-11-29T07:20:20.231Z,65.53
2022-11-29T07:23:06.262Z,63.55
2022-11-29T07:25:55.943Z,62.04
2022-11-29T07:28:50.475Z,60.79
2022-11-29T07:31:42.635Z,59.95
2022-11-29T07:34:35.528Z,56.18
2022-11-29T07:37:20.461Z,56.24
2022-11-29T07:40:06.820Z,58.35
2022-11-29T07:42:50.064Z,63.00
2022-11-29T07:45:27.785Z,66.63
2022-11-29T07:47:56.012Z,65.53
2022-11-29T07:50:26.072Z,62.96
2022-11-29T07:52:56.017Z,61.99
2022-11-29T07:55:27.081Z,61.92
2022-11-29T07:57:54.968Z,60.76
2022-11-29T08:00:23.373Z,59.94
2022-11-29T08:02:51.832Z,58.22
2022-11-29T08:05:19.800Z,56.87
2022-11-29T08:07:47.895Z,59.25
2022-11-29T08:10:17.538Z,63.70
2022-11-29T08:12:50.286Z,66.13
2022-11-29T08:15:21.159Z,65.19
2022-11-29T08:17:49.660Z,64.10
2022-11-29T08:20:18.270Z,62.13
2022-11-29T08:22:58.723Z,61.14
2022-11-29T08:25:28.139Z,60.81
2022-11-29T08:27:56.588Z,60.23
2022-11-29T08:30:24.712Z,57.64
2022-11-29T08:32:53.252Z,56.22
2022-11-29T08:35:23.354Z,59.24
2022-11-29T08:37:51.477Z,62.83
2022-11-29T08:40:19.653Z,65.73
2022-11-29T08:42:47.537Z,64.65
2022-11-29T08:45:15.485Z,63.31
2022-11-29T08:47:43.834Z,62.76
2022-11-29T08:50:16.665Z,62.30
2022-11-29T08:53:07.917Z,61.58
2022-11-29T08:55:43.257Z,60.84
2022-11-29T08:58:14.750Z,57.86
2022-11-29T09:00:47.074Z,55.98
2022-11-29T09:03:34.062Z,57.91
2022-11-29T09:06:12.723Z,58.97
2022-11-29T09:08:45.649Z,63.40
2022-11-29T09:11:20.028Z,67.15
2022-11-29T09:13:54.531Z,64.97
2022-11-29T09:16:26.671Z,63.96
2022-11-29T09:18:56.235Z,63.00
2022-11-29T09:21:26.990Z,61.84
2022-11-29T09:23:59.422Z,59.53
2022-11-29T09:26:31.498Z,56.68
2022-11-29T09:29:04.334Z,57.80
2022-11-29T09:31:34.782Z,59.51
2022-11-29T09:34:02.995Z,64.68
2022-11-29T09:36:31.704Z,66.47
2022-11-29T09:39:03.043Z,65.72
2022-11-29T09:41:58.482Z,63.91
2022-11-29T09:45:03.010Z,63.41
2022-11-29T09:48:31.368Z,62.53
2022-11-29T09:51:30.349Z,62.01
2022-11-29T09:54:23.956Z,61.64
2022-11-29T09:56:55.853Z,60.77
2022-11-29T09:59:49.489Z,58.02
2022-11-29T10:02:45.582Z,56.99
2022-11-29T10:05:44.670Z,59.15
2022-11-29T10:08:27.858Z,63.63
2022-11-29T10:11:31.025Z,65.49
2022-11-29T10:14:18.034Z,64.27
2022-11-29T10:16:55.120Z,62.47
2022-11-29T10:19:37.973Z,61.90
2022-11-29T10:22:18.600Z,61.67
2022-11-29T10:24:51.960Z,61.35
2022-11-29T10:27:24.043Z,58.10
2022-11-29T10:29:52.149Z,57.33
2022-11-29T10:32:24.279Z,58.92
2022-11-29T10:34:52.358Z,60.31
2022-11-29T10:37:23.426Z,64.67
2022-11-29T10:40:00.582Z,67.69
2022-11-29T10:42:47.730Z,66.89
2022-11-29T10:45:40.212Z,64.90
2022-11-29T10:48:12.671Z,63.19
2022-11-29T10:50:44.523Z,61.71
2022-11-29T10:53:22.885Z,60.53
2022-11-29T10:56:00.867Z,56.53
2022-11-29T10:58:31.128Z,56.17
2022-11-29T11:01:17.420Z,57.89
2022-11-29T11:03:58.025Z,59.37
2022-11-29T11:06:49.253Z,64.82
2022-11-29T11:09:28.083Z,67.39
2022-11-29T11:12:00.951Z,65.78
2022-11-29T11:14:34.667Z,64.57
2022-11-29T11:17:27.092Z,63.02
2022-11-29T11:20:06.609Z,61.55
2022-11-29T11:22:40.168Z,61.36
2022-11-29T11:25:35.292Z,60.75
2022-11-29T11:28:27.199Z,57.59
2022-11-29T11:31:16.211Z,57.51
2022-11-29T11:33:46.458Z,58.36
2022-11-29T11:36:20.357Z,61.45
2022-11-29T11:38:55.827Z,65.41
2022-11-29T11:41:55.877Z,67.55
2022-11-29T11:44:47.846Z,65.94
2022-11-29T11:47:22.804Z,64.35
2022-11-29T11:50:02.498Z,63.30
2022-11-29T11:52:50.162Z,61.64
2022-11-29T11:55:21.791Z,60.89
2022-11-29T11:58:10.328Z,61.56
2022-11-29T12:01:06.070Z,61.14
2022-11-29T12:03:52.832Z,59.80
2022-11-29T12:06:43.262Z,56.60
2022-11-29T12:09:40.767Z,57.24
2022-11-29T12:12:23.366Z,58.74
2022-11-29T12:15:34.305Z,61.81
2022-11-29T12:18:12.677Z,66.48
2022-11-29T12:21:07.615Z,67.69
2022-11-29T12:24:10.710Z,65.87
2022-11-29T12:26:58.617Z,64.28
2022-11-29T12:29:32.356Z,62.91
2022-11-29T12:32:42.650Z,61.70
2022-11-29T12:35:40.912Z,61.59
2022-11-29T12:38:24.681Z,61.32
2022-11-29T12:41:16.444Z,60.30
2022-11-29T12:44:07.806Z,58.47
2022-11-29T12:46:39.334Z,57.92
2022-11-29T12:49:33.682Z,60.18
2022-11-29T12:52:13.690Z,65.00
2022-11-29T12:55:10.332Z,66.54
2022-11-29T12:57:45.996Z,65.07
2022-11-29T13:00:20.471Z,63.56
2022-11-29T13:03:07.172Z,62.83
2022-11-29T13:05:57.023Z,62.13
2022-11-29T13:08:49.249Z,62.28
2022-11-29T13:11:40.380Z,61.92
2022-11-29T13:14:41.986Z,61.43
2022-11-29T13:17:39.746Z,60.49
2022-11-29T13:20:25.637Z,60.02
2022-11-29T13:23:39.158Z,59.86
2022-11-29T13:26:13.964Z,60.31
2022-11-29T13:28:46.502Z,60.21
2022-11-29T13:31:20.577Z,59.70
2022-11-29T13:34:10.561Z,58.07
2022-11-29T13:37:13.193Z,57.34
2022-11-29T13:40:06.204Z,59.30
2022-11-29T13:43:18.027Z,62.16
2022-11-29T13:46:36.866Z,67.49
2022-11-29T13:49:04.849Z,67.42
2022-11-29T13:51:41.287Z,65.95
2022-11-29T13:54:32.825Z,65.13
2022-11-29T13:57:10.496Z,64.26
2022-11-29T13:59:45.881Z,63.95
2022-11-29T14:02:41.860Z,63.88
2022-11-29T14:05:29.046Z,63.09
2022-11-29T14:08:26.783Z,61.39
2022-11-29T14:11:01.965Z,60.93
2022-11-29T14:14:18.077Z,61.67
2022-11-29T14:16:53.775Z,61.59
2022-11-29T14:19:33.453Z,60.27
2022-11-29T14:22:07.738Z,59.75
2022-11-29T14:24:35.600Z,60.46
2022-11-29T14:27:06.794Z,60.71
2022-11-29T14:29:54.129Z,59.90
2022-11-29T14:32:58.959Z,60.28
2022-11-29T14:35:37.798Z,60.33
2022-11-29T14:38:30.708Z,60.60
2022-11-29T14:41:46.011Z,60.30
2022-11-29T14:44:28.351Z,57.81
2022-11-29T14:47:27.349Z,59.52
2022-11-29T14:49:58.185Z,59.79
2022-11-29T14:52:33.791Z,64.66
2022-11-29T14:55:04.946Z,66.98
2022-11-29T14:57:48.247Z,65.61
2022-11-29T15:00:38.903Z,64.73
2022-11-29T15:03:42.975Z,63.11
2022-11-29T15:06:26.372Z,61.29
2022-11-29T15:09:11.207Z,60.89
2022-11-29T15:11:56.934Z,60.59
2022-11-29T15:14:56.701Z,58.96
2022-11-29T15:17:54.708Z,57.21
2022-11-29T15:20:31.389Z,58.53
2022-11-29T15:23:04.336Z,62.91
2022-11-29T15:25:33.345Z,65.24
2022-11-29T15:28:06.091Z,65.46
2022-11-29T15:30:37.112Z,65.12
2022-11-29T15:33:23.884Z,65.58
2022-11-29T15:36:04.940Z,64.51
2022-11-29T15:38:44.086Z,63.63
2022-11-29T15:41:30.535Z,63.13
2022-11-29T15:44:06.250Z,62.85
2022-11-29T15:46:36.052Z,61.65
2022-11-29T15:49:18.861Z,61.01
2022-11-29T15:52:08.530Z,61.31
2022-11-29T15:54:46.301Z,61.07
2022-11-29T15:57:29.169Z,60.69
2022-11-29T16:00:05.600Z,60.26
2022-11-29T16:02:39.383Z,59.90
2022-11-29T16:05:29.822Z,60.25
2022-11-29T16:08:05.007Z,60.56
2022-11-29T16:10:43.563Z,59.65
2022-11-29T16:13:31.321Z,57.63
2022-11-29T16:16:22.136Z,57.62
2022-11-29T16:18:51.267Z,61.15
2022-11-29T16:21:32.130Z,63.71
2022-11-29T16:24:20.172Z,66.16
2022-11-29T16:26:50.995Z,64.78
2022-11-29T16:29:38.392Z,64.83
2022-11-29T16:32:42.623Z,64.45
2022-11-29T16:35:18.834Z,64.25
2022-11-29T16:37:48.029Z,64.72
2022-11-29T16:40:35.592Z,63.51
2022-11-29T16:43:03.509Z,62.23
2022-11-29T16:45:41.857Z,61.65
2022-11-29T16:48:31.219Z,60.44
2022-11-29T16:51:11.266Z,60.58
2022-11-29T16:53:47.978Z,60.62
2022-11-29T16:56:20.657Z,60.74
2022-11-29T16:59:24.844Z,60.63
2022-11-29T17:01:43.239Z,61.46
2022-11-29T17:04:11.124Z,61.23
2022-11-29T17:06:39.283Z,60.68
2022-11-29T17:09:07.465Z,60.65
2022-11-29T17:11:35.515Z,60.33
2022-11-29T17:14:03.543Z,60.30
2022-11-29T17:16:31.545Z,60.13
2022-11-29T17:18:59.421Z,59.82
2022-11-29T17:21:32.517Z,59.85
2022-11-29T17:24:00.377Z,58.12
2022-11-29T17:26:35.861Z,58.30
2022-11-29T17:29:04.102Z,60.76
2022-11-29T17:31:32.840Z,63.97
2022-11-29T17:34:02.560Z,66.12
2022-11-29T17:36:31.366Z,65.41
2022-11-29T17:39:00.688Z,63.89
2022-11-29T17:41:29.402Z,63.11
2022-11-29T17:43:58.172Z,62.63
2022-11-29T17:46:36.177Z,61.98
2022-11-29T17:49:08.536Z,61.51
2022-11-29T17:51:54.237Z,61.52
2022-11-29T17:54:22.981Z,61.64
2022-11-29T17:56:52.150Z,60.77
2022-11-29T17:59:20.595Z,60.81
2022-11-29T18:01:48.672Z,60.51
2022-11-29T18:04:16.830Z,60.34
2022-11-29T18:06:50.005Z,60.07
2022-11-29T18:09:19.777Z,60.09
2022-11-29T18:11:50.103Z,59.11
2022-11-29T18:14:24.042Z,57.58
2022-11-29T18:16:52.467Z,58.65
2022-11-29T18:19:23.058Z,60.79
2022-11-29T18:21:58.149Z,63.89
2022-11-29T18:24:27.385Z,66.16
2022-11-29T18:27:00.319Z,67.04
2022-11-29T18:29:38.283Z,67.51
2022-11-29T18:32:07.549Z,65.20
2022-11-29T18:34:38.839Z,64.44
2022-11-29T18:37:16.014Z,63.03
2022-11-29T18:39:51.706Z,62.45
2022-11-29T18:42:21.708Z,60.47
2022-11-29T18:44:51.725Z,59.42
2022-11-29T18:47:24.566Z,58.54
2022-11-29T18:53:04.537Z,64.23
2022-11-29T18:55:37.258Z,66.59
2022-11-29T18:58:09.475Z,65.69
2022-11-29T19:00:37.780Z,64.28
2022-11-29T19:03:07.200Z,62.54
2022-11-29T19:05:41.043Z,62.04
2022-11-29T19:08:12.288Z,61.94
2022-11-29T19:10:42.184Z,61.93
2022-11-29T19:13:18.672Z,62.31
2022-11-29T19:15:55.932Z,62.65
2022-11-29T19:18:37.041Z,62.42
2022-11-29T19:21:12.697Z,61.73
2022-11-29T19:23:56.188Z,61.12
2022-11-29T19:26:28.130Z,60.31
2022-11-29T19:29:04.141Z,60.29
2022-11-29T19:31:36.343Z,60.10
2022-11-29T19:34:11.478Z,60.07
2022-11-29T19:36:46.363Z,60.37
2022-11-29T19:39:18.129Z,60.72
2022-11-29T19:41:50.254Z,60.44
2022-11-29T19:44:18.528Z,59.86
2022-11-29T19:46:49.563Z,59.63
2022-11-29T19:49:17.756Z,60.56
2022-11-29T19:51:45.831Z,60.73
2022-11-29T19:54:14.260Z,58.35
2022-11-29T19:56:55.775Z,57.40
2022-11-29T19:59:27.251Z,58.38
2022-11-29T20:01:57.487Z,59.43
2022-11-29T20:04:27.620Z,62.76
2022-11-29T20:06:58.145Z,65.09
2022-11-29T20:09:31.645Z,64.46
2022-11-29T20:12:02.011Z,64.17
2022-11-29T20:14:33.557Z,64.39
2022-11-29T20:17:07.842Z,63.84
2022-11-29T20:19:41.622Z,63.53
2022-11-29T20:22:09.822Z,62.63
2022-11-29T20:24:45.351Z,61.75
2022-11-29T20:27:19.496Z,62.24
2022-11-29T20:29:47.796Z,62.21
2022-11-29T20:32:23.701Z,62.05
2022-11-29T20:34:57.478Z,60.12
2022-11-29T20:38:17.259Z,58.24
2022-11-29T20:41:07.820Z,57.89
2022-11-29T20:43:49.709Z,60.46
2022-11-29T20:46:20.094Z,65.29
2022-11-29T20:48:48.695Z,66.03
2022-11-29T20:51:28.609Z,65.75
2022-11-29T20:53:58.992Z,64.67
2022-11-29T20:56:36.846Z,63.34
2022-11-29T20:59:04.794Z,61.95
2022-11-29T21:01:35.642Z,60.78
2022-11-29T21:04:18.849Z,60.67
2022-11-29T21:06:58.797Z,60.74
2022-11-29T21:09:28.633Z,60.29
2022-11-29T21:12:02.817Z,58.36
2022-11-29T21:14:35.729Z,56.69
2022-11-29T21:17:04.596Z,58.75
2022-11-29T21:19:49.755Z,60.32
2022-11-29T21:22:32.491Z,65.65
2022-11-29T21:25:21.476Z,66.53
2022-11-29T21:27:52.705Z,66.61
2022-11-29T21:30:28.251Z,65.63
2022-11-29T21:32:58.611Z,58.15
2022-11-29T21:35:30.148Z,55.49
2022-11-29T21:38:14.770Z,56.05
2022-11-29T21:40:45.086Z,58.78
2022-11-29T21:43:16.074Z,62.02
2022-11-29T21:45:52.519Z,66.38
2022-11-29T21:48:38.241Z,69.75
2022-11-29T21:51:22.437Z,63.43
2022-11-29T21:53:50.947Z,54.87
2022-11-29T21:56:24.401Z,52.41
2022-11-29T21:59:02.819Z,53.85
2022-11-29T22:01:32.382Z,55.10
2022-11-29T22:04:00.714Z,58.09
2022-11-29T22:06:29.559Z,60.29
2022-11-29T22:08:59.864Z,66.24
2022-11-29T22:11:35.531Z,72.40
2022-11-29T22:14:15.803Z,67.47
2022-11-29T22:17:17.705Z,57.57
2022-11-29T22:19:45.666Z,52.26
2022-11-29T22:22:13.991Z,54.05
2022-11-29T22:24:43.306Z,55.78
2022-11-29T22:27:11.329Z,57.26
2022-11-29T22:29:39.178Z,59.19
2022-11-29T22:32:07.174Z,63.52
2022-11-29T22:34:36.671Z,72.37
2022-11-29T22:37:04.772Z,69.55
2022-11-29T22:39:32.709Z,57.90
2022-11-29T22:42:06.239Z,51.66
2022-11-29T22:44:35.190Z,51.76
2022-11-29T22:47:04.139Z,52.99
2022-11-29T22:49:33.733Z,55.56
2022-11-29T22:52:02.309Z,58.28
2022-11-29T22:54:34.088Z,60.24
2022-11-29T22:57:03.098Z,67.84
2022-11-29T22:59:33.808Z,70.27
2022-11-29T23:02:02.470Z,60.97
2022-11-29T23:04:30.479Z,52.29
2022-11-29T23:07:05.635Z,50.12
2022-11-29T23:09:35.347Z,51.57
2022-11-29T23:12:11.124Z,54.21
2022-11-29T23:14:40.744Z,55.80
2022-11-29T23:17:08.765Z,57.31
2022-11-29T23:19:39.394Z,60.15
2022-11-29T23:22:07.723Z,64.61
2022-11-29T23:24:35.659Z,73.61
2022-11-29T23:27:04.597Z,69.64
2022-11-29T23:29:32.539Z,62.88
2022-11-29T23:32:00.481Z,54.09
2022-11-29T23:34:28.424Z,50.35
2022-11-29T23:36:56.319Z,51.74
2022-11-29T23:39:24.190Z,53.58
2022-11-29T23:41:52.113Z,55.33
2022-11-29T23:44:20.026Z,56.69
2022-11-29T23:46:47.915Z,58.14
2022-11-29T23:49:15.862Z,61.71
2022-11-29T23:51:43.664Z,69.07
2022-11-29T23:54:11.641Z,66.61
2022-11-29T23:56:39.603Z,58.33
2022-11-29T23:59:07.653Z,52.52
